createdAt,value
2022-08-16T00:00:38.461Z,89.00
2022-08-16T00:03:53.445Z,88.82
2022-08-16T00:06:42.327Z,88.98
2022-08-16T00:09:20.386Z,88.99
2022-08-16T00:12:18.039Z,89.24
2022-08-16T00:15:05.496Z,89.39
2022-08-16T00:18:12.164Z,89.52
2022-08-16T00:20:59.922Z,89.35
2022-08-16T00:23:47.427Z,89.46
2022-08-16T00:26:35.345Z,89.55
2022-08-16T00:29:18.864Z,89.57
2022-08-16T00:32:23.811Z,89.75
2022-08-16T00:35:15.111Z,89.71
2022-08-16T00:38:40.709Z,89.61
2022-08-16T00:41:17.396Z,89.59
2022-08-16T00:44:10.441Z,89.96
2022-08-16T00:47:11.166Z,89.70
2022-08-16T00:49:56.541Z,89.79
2022-08-16T00:52:55.889Z,89.69
2022-08-16T00:55:38.091Z,89.82
2022-08-16T00:58:18.613Z,89.87
2022-08-16T01:01:26.541Z,89.93
2022-08-16T01:04:29.341Z,89.91
2022-08-16T01:07:27.368Z,89.98
2022-08-16T01:10:41.001Z,89.98
2022-08-16T01:13:35.487Z,90.14
2022-08-16T01:16:29.120Z,90.09
2022-08-16T01:19:23.462Z,89.86
2022-08-16T01:22:47.466Z,89.86
2022-08-16T01:25:41.515Z,90.24
2022-08-16T01:28:38.855Z,90.10
2022-08-16T01:31:31.048Z,90.12
2022-08-16T01:34:04.652Z,90.22
2022-08-16T01:36:55.103Z,90.45
2022-08-16T01:39:43.051Z,90.39
2022-08-16T01:42:22.974Z,90.34
2022-08-16T01:45:06.081Z,90.50
2022-08-16T01:47:49.226Z,90.60
2022-08-16T01:50:42.407Z,90.52
2022-08-16T01:53:26.049Z,90.39
2022-08-16T01:56:01.402Z,90.71
2022-08-16T01:58:34.445Z,90.68
2022-08-16T02:01:40.790Z,90.69
2022-08-16T02:04:48.665Z,90.58
2022-08-16T02:07:45.179Z,90.72
2022-08-16T02:10:40.737Z,90.53
2022-08-16T02:13:27.801Z,90.42
2022-08-16T02:16:05.923Z,90.62
2022-08-16T02:19:21.251Z,90.70
2022-08-16T02:22:33.659Z,90.75
2022-08-16T02:25:50.734Z,91.07
2022-08-16T02:29:05.341Z,91.41
2022-08-16T02:32:03.841Z,91.74
2022-08-16T02:35:10.368Z,91.82
2022-08-16T02:38:01.468Z,92.16
2022-08-16T02:40:35.078Z,92.17
2022-08-16T02:43:37.782Z,92.47
2022-08-16T02:46:30.148Z,92.44
2022-08-16T02:49:58.500Z,92.75
2022-08-16T02:52:35.382Z,92.67
2022-08-16T02:55:41.345Z,92.39
2022-08-16T02:58:29.113Z,92.61
2022-08-16T03:01:02.227Z,92.65
2022-08-16T03:04:41.351Z,92.32
2022-08-16T03:06:42.778Z,92.16
2022-08-16T03:10:08.290Z,92.10
2022-08-16T03:12:55.881Z,92.11
2022-08-16T03:15:45.306Z,92.04
2022-08-16T03:18:42.468Z,92.12
2022-08-16T03:21:37.747Z,92.05
2022-08-16T03:24:29.903Z,92.21
2022-08-16T03:27:11.325Z,92.05
2022-08-16T03:29:54.542Z,91.97
2022-08-16T03:33:08.159Z,92.01
2022-08-16T03:35:48.154Z,92.34
2022-08-16T03:38:34.969Z,92.32
2022-08-16T03:41:25.314Z,92.36
2022-08-16T03:44:43.333Z,92.48
2022-08-16T03:47:19.058Z,92.37
2022-08-16T03:50:26.159Z,92.57
2022-08-16T03:53:06.050Z,92.53
2022-08-16T03:56:03.485Z,92.59
2022-08-16T03:58:42.643Z,92.48
2022-08-16T04:01:29.870Z,92.26
2022-08-16T04:04:10.664Z,92.17
2022-08-16T04:06:56.050Z,92.22
2022-08-16T04:09:57.038Z,92.25
2022-08-16T04:12:53.648Z,92.33
2022-08-16T04:15:38.880Z,92.12
2022-08-16T04:18:32.116Z,92.02
2022-08-16T04:21:04.117Z,91.90
2022-08-16T04:23:41.472Z,92.10
2022-08-16T04:26:24.312Z,92.02
2022-08-16T04:29:43.751Z,92.01
2022-08-16T04:32:30.841Z,92.12
2022-08-16T04:35:23.987Z,92.02
2022-08-16T04:37:58.372Z,91.88
2022-08-16T04:40:37.990Z,92.07
2022-08-16T04:43:29.377Z,91.89
2022-08-16T04:46:19.745Z,91.94
2022-08-16T04:49:18.737Z,91.62
2022-08-16T04:51:53.855Z,91.40
2022-08-16T04:54:52.871Z,91.59
2022-08-16T04:57:53.378Z,91.40
2022-08-16T05:00:32.867Z,91.13
2022-08-16T05:03:24.108Z,90.99
2022-08-16T05:06:45.178Z,90.65
2022-08-16T05:10:19.655Z,90.48
2022-08-16T05:13:24.317Z,90.60
2022-08-16T05:16:44.082Z,90.41
2022-08-16T05:19:36.095Z,90.65
2022-08-16T05:22:34.311Z,90.30
2022-08-16T05:25:19.305Z,90.34
2022-08-16T05:28:11.870Z,89.61
2022-08-16T05:30:45.992Z,89.37
2022-08-16T05:33:32.721Z,89.27
2022-08-16T05:36:20.924Z,89.01
2022-08-16T05:39:05.165Z,88.73
2022-08-16T05:42:05.349Z,88.54
2022-08-16T05:44:54.414Z,88.62
2022-08-16T05:48:02.451Z,88.49
2022-08-16T05:51:00.136Z,88.19
2022-08-16T05:53:29.399Z,88.29
2022-08-16T05:56:50.054Z,87.96
2022-08-16T05:59:32.235Z,87.94
2022-08-16T06:02:24.481Z,88.19
2022-08-16T06:05:11.480Z,87.85
2022-08-16T06:07:58.201Z,88.00
2022-08-16T06:10:33.353Z,88.10
2022-08-16T06:13:17.378Z,88.48
2022-08-16T06:15:58.583Z,88.50
2022-08-16T06:18:50.618Z,88.00
2022-08-16T06:21:42.780Z,87.94
2022-08-16T06:25:04.507Z,87.71
2022-08-16T06:27:40.690Z,86.92
2022-08-16T06:30:22.717Z,86.35
2022-08-16T06:33:12.392Z,86.01
2022-08-16T06:36:05.179Z,85.71
2022-08-16T06:38:55.878Z,85.94
2022-08-16T06:41:43.733Z,86.02
2022-08-16T06:44:34.013Z,86.00
2022-08-16T06:47:11.399Z,85.26
2022-08-16T06:50:10.070Z,84.97
2022-08-16T06:53:23.719Z,84.70
2022-08-16T06:56:06.673Z,84.50
2022-08-16T06:59:18.293Z,84.05
2022-08-16T07:01:58.253Z,83.90
2022-08-16T07:04:48.591Z,84.00
2022-08-16T07:07:34.583Z,83.46
2022-08-16T07:10:35.257Z,81.82
2022-08-16T07:14:00.332Z,80.27
2022-08-16T07:16:38.746Z,80.21
2022-08-16T07:19:18.784Z,80.50
2022-08-16T07:22:02.049Z,80.15
2022-08-16T07:25:06.437Z,79.90
2022-08-16T07:27:53.842Z,79.15
2022-08-16T07:31:05.860Z,77.37
2022-08-16T07:33:53.276Z,77.92
2022-08-16T07:36:35.506Z,78.22
2022-08-16T07:39:14.683Z,77.53
2022-08-16T07:41:56.448Z,77.06
2022-08-16T07:44:50.281Z,76.75
2022-08-16T07:47:34.474Z,76.54
2022-08-16T07:50:57.137Z,77.12
2022-08-16T07:53:22.461Z,77.19
2022-08-16T07:55:58.584Z,76.40
2022-08-16T07:58:34.134Z,75.34
2022-08-16T08:01:25.096Z,75.17
2022-08-16T08:04:14.937Z,75.25
2022-08-16T08:06:59.695Z,75.32
2022-08-16T08:09:53.089Z,73.32
2022-08-16T08:12:31.227Z,72.36
2022-08-16T08:15:34.676Z,72.05
2022-08-16T08:18:30.017Z,71.64
2022-08-16T08:21:04.553Z,72.15
2022-08-16T08:24:03.896Z,72.58
2022-08-16T08:26:59.233Z,72.31
2022-08-16T08:29:40.494Z,72.30
2022-08-16T08:32:57.003Z,72.09
2022-08-16T08:35:36.624Z,72.13
2022-08-16T08:38:43.569Z,72.30
2022-08-16T08:41:37.530Z,72.30
2022-08-16T08:44:28.407Z,71.22
2022-08-16T08:47:13.630Z,70.28
2022-08-16T08:50:04.382Z,68.07
2022-08-16T08:52:45.133Z,68.34
2022-08-16T08:55:23.182Z,67.98
2022-08-16T08:58:01.221Z,68.56
2022-08-16T09:00:55.619Z,69.03
2022-08-16T09:03:33.000Z,69.42
2022-08-16T09:06:20.117Z,69.31
2022-08-16T09:08:59.338Z,69.60
2022-08-16T09:12:06.273Z,69.57
2022-08-16T09:15:01.916Z,69.44
2022-08-16T09:17:51.788Z,69.17
2022-08-16T09:20:35.511Z,69.52
2022-08-16T09:23:38.435Z,69.84
2022-08-16T09:26:44.865Z,69.87
2022-08-16T09:29:44.843Z,70.08
2022-08-16T09:32:28.831Z,70.30
2022-08-16T09:35:53.545Z,70.77
2022-08-16T09:38:38.749Z,70.60
2022-08-16T09:41:35.528Z,70.53
2022-08-16T09:45:11.371Z,69.74
2022-08-16T09:47:57.425Z,70.44
2022-08-16T09:51:11.012Z,70.36
2022-08-16T09:53:53.927Z,70.52
2022-08-16T09:56:54.525Z,70.84
2022-08-16T09:59:56.267Z,69.00
2022-08-16T10:02:44.272Z,69.32
2022-08-16T10:05:33.633Z,68.65
2022-08-16T10:08:26.456Z,68.09
2022-08-16T10:11:49.847Z,68.82
2022-08-16T10:15:07.970Z,69.69
2022-08-16T10:19:00.121Z,69.22
2022-08-16T10:21:35.316Z,68.49
2022-08-16T10:24:28.515Z,68.68
2022-08-16T10:27:26.738Z,68.94
2022-08-16T10:30:28.369Z,69.20
2022-08-16T10:33:04.110Z,69.43
2022-08-16T10:35:46.785Z,69.84
2022-08-16T10:38:38.132Z,69.95
2022-08-16T10:41:16.170Z,69.85
2022-08-16T10:43:59.377Z,69.68
2022-08-16T10:46:41.817Z,69.52
2022-08-16T10:49:24.615Z,69.36
2022-08-16T10:52:18.921Z,67.86
2022-08-16T10:58:33.951Z,67.98
2022-08-16T11:07:43.328Z,67.12
2022-08-16T11:14:11.223Z,66.51
2022-08-16T11:17:01.967Z,66.59
2022-08-16T11:22:49.144Z,66.45
2022-08-16T11:29:12.676Z,67.50
2022-08-16T11:31:53.927Z,68.32
2022-08-16T11:35:10.472Z,68.78
2022-08-16T11:38:24.094Z,69.74
2022-08-16T11:40:56.837Z,70.24
2022-08-16T11:43:47.085Z,70.71
2022-08-16T11:46:44.658Z,71.60
2022-08-16T11:49:39.774Z,72.42
2022-08-16T11:52:23.825Z,72.46
2022-08-16T11:55:23.598Z,72.59
2022-08-16T11:58:12.593Z,72.12
2022-08-16T12:01:29.560Z,72.42
2022-08-16T12:04:20.891Z,72.12
2022-08-16T12:07:01.342Z,71.18
2022-08-16T12:09:34.855Z,70.35
2022-08-16T12:12:18.580Z,70.37
2022-08-16T12:15:14.117Z,71.23
2022-08-16T12:17:49.515Z,71.64
2022-08-16T12:20:35.133Z,71.54
2022-08-16T12:23:27.808Z,70.85
2022-08-16T12:26:10.385Z,70.93
2022-08-16T12:28:54.611Z,70.64
2022-08-16T12:31:59.301Z,70.90
2022-08-16T12:34:53.131Z,71.05
2022-08-16T12:37:33.812Z,70.78
2022-08-16T12:40:23.860Z,71.05
2022-08-16T12:43:08.313Z,71.04
2022-08-16T12:45:44.912Z,72.40
2022-08-16T12:48:44.699Z,72.62
2022-08-16T12:51:46.800Z,73.57
2022-08-16T12:54:29.724Z,73.99
2022-08-16T12:57:36.456Z,74.19
2022-08-16T13:00:28.705Z,73.71
2022-08-16T13:03:04.619Z,72.40
2022-08-16T13:05:56.009Z,72.33
2022-08-16T13:08:34.433Z,70.59
2022-08-16T13:14:32.963Z,67.50
2022-08-16T13:17:17.128Z,63.77
2022-08-16T13:20:07.670Z,60.73
2022-08-16T13:23:11.074Z,61.36
2022-08-16T13:25:52.716Z,60.84
2022-08-16T13:28:40.052Z,59.11
2022-08-16T13:31:54.752Z,57.39
2022-08-16T13:34:51.289Z,55.36
2022-08-16T13:37:20.623Z,52.96
2022-08-16T13:40:09.209Z,52.10
2022-08-16T13:42:57.215Z,51.78
2022-08-16T13:45:38.533Z,51.95
2022-08-16T13:48:42.730Z,52.05
2022-08-16T13:51:19.716Z,52.34
2022-08-16T13:57:03.763Z,53.33
2022-08-16T13:59:42.682Z,54.04
2022-08-16T14:02:13.654Z,54.21
2022-08-16T14:05:05.267Z,54.36
2022-08-16T14:07:50.666Z,55.44
2022-08-16T14:10:38.667Z,56.53
2022-08-16T14:13:21.077Z,57.48
2022-08-16T14:16:05.116Z,58.76
2022-08-16T14:18:55.082Z,59.96
2022-08-16T14:21:34.869Z,60.07
2022-08-16T14:24:22.507Z,59.73
2022-08-16T14:27:16.179Z,59.04
2022-08-16T14:29:50.612Z,58.46
2022-08-16T14:32:34.104Z,57.77
2022-08-16T14:35:14.520Z,56.27
2022-08-16T14:37:57.183Z,54.15
2022-08-16T14:40:47.178Z,53.78
2022-08-16T14:43:52.942Z,53.74
2022-08-16T14:46:25.119Z,54.42
2022-08-16T14:49:10.906Z,54.31
2022-08-16T14:51:45.930Z,54.16
2022-08-16T14:54:37.280Z,52.38
2022-08-16T14:57:42.423Z,53.76
2022-08-16T15:00:32.978Z,55.31
2022-08-16T15:03:25.025Z,56.01
2022-08-16T15:06:21.787Z,55.77
2022-08-16T15:09:14.587Z,56.16
2022-08-16T15:11:59.451Z,56.40
2022-08-16T15:14:42.959Z,56.82
2022-08-16T15:17:39.511Z,56.45
2022-08-16T15:20:18.839Z,57.03
2022-08-16T15:23:01.547Z,57.98
2022-08-16T15:26:03.132Z,57.91
2022-08-16T15:28:39.518Z,58.50
2022-08-16T15:31:24.443Z,59.24
2022-08-16T15:34:13.136Z,59.03
2022-08-16T15:36:54.701Z,59.80
2022-08-16T15:39:30.346Z,60.77
2022-08-16T15:42:28.832Z,61.02
2022-08-16T15:45:55.970Z,61.39
2022-08-16T15:48:33.835Z,61.83
2022-08-16T15:51:07.285Z,61.94
2022-08-16T15:54:20.970Z,61.87
2022-08-16T15:57:11.580Z,62.49
2022-08-16T15:59:59.314Z,62.50
2022-08-16T16:03:12.881Z,62.28
2022-08-16T16:05:56.998Z,62.09
2022-08-16T16:08:56.795Z,62.24
2022-08-16T16:11:42.534Z,60.98
2022-08-16T16:14:27.888Z,61.00
2022-08-16T16:17:16.751Z,60.87
2022-08-16T16:20:16.201Z,61.53
2022-08-16T16:23:15.472Z,61.95
2022-08-16T16:26:07.929Z,62.03
2022-08-16T16:29:10.814Z,61.86
2022-08-16T16:32:00.054Z,62.22
2022-08-16T16:34:35.655Z,62.67
2022-08-16T16:37:09.601Z,63.08
2022-08-16T16:39:49.977Z,63.20
2022-08-16T16:42:49.143Z,63.54
2022-08-16T16:45:48.930Z,63.63
2022-08-16T16:48:34.912Z,64.33
2022-08-16T16:51:23.293Z,64.72
2022-08-16T16:54:27.472Z,64.99
2022-08-16T16:57:30.834Z,65.24
2022-08-16T17:00:30.491Z,65.28
2022-08-16T17:03:17.490Z,64.83
2022-08-16T17:06:03.208Z,64.65
2022-08-16T17:08:46.114Z,64.29
2022-08-16T17:11:19.200Z,63.64
2022-08-16T17:14:06.176Z,62.85
2022-08-16T17:17:14.879Z,62.82
2022-08-16T17:19:59.244Z,62.88
2022-08-16T17:22:41.556Z,62.60
2022-08-16T17:25:36.384Z,62.27
2022-08-16T17:28:57.717Z,62.61
2022-08-16T17:31:52.900Z,62.90
2022-08-16T17:34:34.918Z,63.39
2022-08-16T17:37:58.701Z,63.35
2022-08-16T17:40:50.425Z,63.48
2022-08-16T17:43:56.438Z,64.33
2022-08-16T17:46:41.376Z,64.81
2022-08-16T17:49:30.750Z,65.16
2022-08-16T17:52:08.013Z,65.04
2022-08-16T17:55:03.227Z,65.60
2022-08-16T17:57:31.808Z,65.89
2022-08-16T18:00:30.384Z,66.01
2022-08-16T18:03:54.376Z,66.34
2022-08-16T18:06:18.258Z,66.64
2022-08-16T18:09:10.944Z,67.01
2022-08-16T18:11:54.890Z,67.27
2022-08-16T18:14:52.035Z,67.46
2022-08-16T18:17:32.805Z,67.68
2022-08-16T18:20:01.137Z,67.84
2022-08-16T18:23:09.351Z,68.00
2022-08-16T18:25:58.476Z,68.30
2022-08-16T18:28:42.489Z,68.34
2022-08-16T18:31:19.209Z,68.51
2022-08-16T18:33:56.367Z,68.94
2022-08-16T18:36:42.265Z,68.76
2022-08-16T18:39:41.911Z,68.77
2022-08-16T18:42:40.779Z,68.64
2022-08-16T18:45:24.311Z,68.96
2022-08-16T18:48:36.210Z,69.06
2022-08-16T18:54:04.558Z,69.08
2022-08-16T18:56:58.773Z,69.34
2022-08-16T18:59:56.412Z,69.45
2022-08-16T19:02:43.608Z,69.83
2022-08-16T19:05:48.616Z,70.00
2022-08-16T19:08:38.411Z,70.10
2022-08-16T19:11:40.677Z,70.39
2022-08-16T19:14:27.376Z,70.39
2022-08-16T19:17:12.640Z,70.61
2022-08-16T19:19:51.895Z,70.96
2022-08-16T19:23:02.173Z,71.00
2022-08-16T19:25:53.119Z,71.05
2022-08-16T19:28:52.087Z,71.46
2022-08-16T19:31:37.744Z,71.79
2022-08-16T19:34:17.326Z,71.92
2022-08-16T19:36:57.154Z,72.05
2022-08-16T19:39:36.885Z,72.34
2022-08-16T19:42:30.548Z,72.47
2022-08-16T19:45:05.390Z,72.82
2022-08-16T19:48:17.992Z,72.70
2022-08-16T19:51:00.900Z,73.07
2022-08-16T19:53:31.137Z,73.18
2022-08-16T19:56:09.398Z,73.20
2022-08-16T19:59:17.588Z,73.32
2022-08-16T20:01:55.010Z,73.50
2022-08-16T20:04:26.186Z,73.72
2022-08-16T20:06:54.874Z,73.80
2022-08-16T20:09:24.558Z,73.93
2022-08-16T20:12:07.631Z,74.07
2022-08-16T20:14:59.516Z,74.07
2022-08-16T20:17:45.142Z,74.38
2022-08-16T20:20:34.880Z,74.61
2022-08-16T20:23:24.488Z,75.05
2022-08-16T20:26:16.912Z,75.31
2022-08-16T20:28:55.442Z,75.52
2022-08-16T20:31:49.088Z,75.52
2022-08-16T20:34:24.739Z,76.00
2022-08-16T20:37:15.002Z,76.32
2022-08-16T20:40:28.321Z,76.49
2022-08-16T20:43:50.811Z,76.89
2022-08-16T20:46:46.431Z,77.36
2022-08-16T20:49:18.458Z,77.62
2022-08-16T20:52:06.442Z,77.84
2022-08-16T20:54:59.758Z,78.05
2022-08-16T20:57:30.516Z,78.36
2022-08-16T20:59:58.965Z,78.44
2022-08-16T21:03:12.084Z,78.48
2022-08-16T21:06:11.211Z,78.77
2022-08-16T21:08:53.350Z,78.76
2022-08-16T21:11:34.675Z,78.93
2022-08-16T21:14:22.703Z,78.65
2022-08-16T21:17:11.836Z,78.93
2022-08-16T21:19:59.955Z,78.95
2022-08-16T21:23:00.866Z,79.25
2022-08-16T21:25:58.922Z,79.74
2022-08-16T21:28:48.032Z,80.00
2022-08-16T21:31:54.929Z,80.31
2022-08-16T21:34:52.609Z,80.73
2022-08-16T21:37:35.704Z,81.00
2022-08-16T21:40:15.395Z,80.95
2022-08-16T21:42:53.787Z,81.30
2022-08-16T21:46:01.567Z,80.84
2022-08-16T21:52:37.715Z,80.49
2022-08-16T21:55:21.433Z,80.95
2022-08-16T21:58:18.627Z,81.03
2022-08-16T22:01:40.661Z,81.40
2022-08-16T22:07:40.187Z,81.65
2022-08-16T22:11:07.091Z,81.83
2022-08-16T22:13:57.724Z,82.09
2022-08-16T22:16:50.059Z,82.09
2022-08-16T22:19:32.678Z,82.28
2022-08-16T22:22:35.213Z,82.61
2022-08-16T22:25:42.608Z,82.89
2022-08-16T22:28:20.762Z,82.86
2022-08-16T22:31:07.409Z,83.06
2022-08-16T22:34:30.707Z,82.84
2022-08-16T22:38:50.397Z,83.08
2022-08-16T22:40:46.291Z,82.94
2022-08-16T22:47:30.292Z,82.84
2022-08-16T22:50:05.365Z,82.76
2022-08-16T22:52:55.831Z,82.99
2022-08-16T22:55:43.712Z,83.07
2022-08-16T22:58:36.338Z,83.49
2022-08-16T23:01:51.589Z,83.33
2022-08-16T23:04:41.820Z,83.41
2022-08-16T23:07:34.568Z,83.51
2022-08-16T23:10:03.946Z,83.77
2022-08-16T23:12:55.739Z,83.83
2022-08-16T23:15:59.254Z,84.09
2022-08-16T23:18:50.494Z,83.83
2022-08-16T23:21:39.169Z,83.82
2022-08-16T23:24:37.179Z,83.75
2022-08-16T23:27:42.358Z,83.58
2022-08-16T23:30:41.259Z,83.63
2022-08-16T23:33:21.997Z,83.83
2022-08-16T23:39:18.284Z,83.80
2022-08-16T23:42:04.446Z,84.19
2022-08-16T23:47:36.863Z,84.26
2022-08-16T23:50:43.881Z,84.46
2022-08-16T23:53:30.804Z,84.66
2022-08-16T23:56:29.987Z,84.39
2022-08-16T23:59:15.847Z,84.54
